Time,TemperatureF,DewpointF,PressureIn,WindDirection,WindDirectionDegrees,WindSpeedMPH,WindSpeedGustMPH,Humidity,HourlyPrecipIn,Conditions,Clouds,dailyrainin,SoftwareType,DateUTC
2013-08-03 00:52:00,54.0,36.0,29.96,SSE,153,5.0,6.0,50,0.00,,,0.00,,2013-08-03 07:52:00,
2013-08-03 01:02:00,54.0,36.0,29.96,SSE,153,5.0,6.0,50,0.00,,,0.00,,2013-08-03 08:02:00,
2013-08-03 01:22:00,55.0,37.0,29.96,SE,129,3.0,5.0,51,0.00,,,0.00,,2013-08-03 08:22:00,
2013-08-03 01:32:00,55.0,38.0,29.96,ESE,112,3.0,5.0,52,0.00,,,0.00,,2013-08-03 08:32:00,
2013-08-03 01:43:00,55.0,39.0,29.96,ESE,122,6.0,7.0,54,0.00,,,0.00,,2013-08-03 08:43:00,
2013-08-03 01:52:00,55.0,39.0,29.96,ESE,122,6.0,7.0,54,0.00,,,0.00,,2013-08-03 08:52:00,
2013-08-03 02:02:00,54.0,37.0,29.96,SSE,149,3.0,6.0,53,0.00,,,0.00,,2013-08-03 09:02:00,
2013-08-03 02:12:00,54.0,37.0,29.96,SSE,149,3.0,6.0,53,0.00,,,0.00,,2013-08-03 09:12:00,
2013-08-03 02:22:00,54.0,38.0,29.96,SSE,158,3.0,5.0,55,0.00,,,0.00,,2013-08-03 09:22:00,
2013-08-03 02:32:00,53.0,37.0,29.96,SE,126,3.0,6.0,54,0.00,,,0.00,,2013-08-03 09:32:00,
2013-08-03 02:43:00,52.0,37.0,29.96,SE,134,3.0,5.0,56,0.00,,,0.00,,2013-08-03 09:43:00,
2013-08-03 02:53:00,52.0,37.0,29.96,SE,134,3.0,5.0,56,0.00,,,0.00,,2013-08-03 09:53:00,
2013-08-03 03:02:00,52.0,37.0,29.96,SSE,151,4.0,6.0,56,0.00,,,0.00,,2013-08-03 10:02:00,
2013-08-03 03:32:00,52.0,38.0,29.93,SE,130,6.0,8.0,58,0.00,,,0.00,,2013-08-03 10:32:00,
2013-08-03 03:42:00,52.0,38.0,29.93,SSE,150,6.0,6.0,58,0.00,,,0.00,,2013-08-03 10:42:00,
2013-08-03 03:53:00,52.0,38.0,29.96,SE,128,6.0,6.0,58,0.00,,,0.00,,2013-08-03 10:53:00,
2013-08-03 04:02:00,52.0,38.0,29.96,SSE,158,5.0,6.0,58,0.00,,,0.00,,2013-08-03 11:02:00,
2013-08-03 04:22:00,52.0,37.0,29.96,SSE,168,2.0,5.0,57,0.00,,,0.00,,2013-08-03 11:22:00,
2013-08-03 04:32:00,51.0,36.0,29.96,SSE,158,2.0,2.0,57,0.00,,,0.00,,2013-08-03 11:32:00,
2013-08-03 04:43:00,48.0,34.0,29.96,SE,135,2.0,2.0,58,0.00,,,0.00,,2013-08-03 11:43:00,
2013-08-03 04:53:00,48.0,34.0,29.96,SE,135,2.0,2.0,58,0.00,,,0.00,,2013-08-03 11:53:00,
2013-08-03 05:02:00,47.0,35.0,29.96,SSE,158,2.0,3.0,62,0.00,,,0.00,,2013-08-03 12:02:00,
2013-08-03 05:12:00,48.0,36.0,29.96,SSE,152,3.0,3.0,63,0.00,,,0.00,,2013-08-03 12:12:00,
2013-08-03 05:43:00,50.0,38.0,29.96,SE,132,6.0,7.0,63,0.00,,,0.00,,2013-08-03 12:43:00,
2013-08-03 05:52:00,50.0,38.0,29.96,SE,132,6.0,7.0,63,0.00,,,0.00,,2013-08-03 12:52:00,
2013-08-03 06:01:00,49.0,36.0,29.96,SSE,158,3.0,3.0,60,0.00,,,0.00,,2013-08-03 13:01:00,
2013-08-03 06:12:00,49.0,36.0,29.96,SSE,158,3.0,3.0,60,0.00,,,0.00,,2013-08-03 13:12:00,
2013-08-03 06:22:00,48.0,35.0,29.96,SE,124,2.0,3.0,61,0.00,,,0.00,,2013-08-03 13:22:00,
2013-08-03 06:32:00,48.0,36.0,29.96,SE,144,3.0,3.0,63,0.00,,,0.00,,2013-08-03 13:32:00,
2013-08-03 06:43:00,48.0,36.0,29.96,SE,125,2.0,3.0,63,0.00,,,0.00,,2013-08-03 13:43:00,
2013-08-03 06:52:00,48.0,36.0,29.96,SE,125,2.0,3.0,63,0.00,,,0.00,,2013-08-03 13:52:00,
2013-08-03 07:12:00,52.0,39.0,29.96,SE,138,3.0,5.0,62,0.00,,,0.00,,2013-08-03 14:12:00,
2013-08-03 07:32:00,56.0,41.0,29.96,SSE,153,4.0,6.0,56,0.00,,,0.00,,2013-08-03 14:32:00,
2013-08-03 07:42:00,57.0,41.0,29.96,SSE,159,2.0,6.0,54,0.00,,,0.00,,2013-08-03 14:42:00,
2013-08-03 07:52:00,59.0,41.0,29.96,SSE,157,2.0,3.0,52,0.00,,,0.00,,2013-08-03 14:52:00,
2013-08-03 08:02:00,60.0,40.0,29.96,SSE,158,2.0,2.0,48,0.00,,,0.00,,2013-08-03 15:02:00,
2013-08-03 08:32:00,63.0,41.0,29.99,WNW,295,2.0,5.0,44,0.00,,,0.00,,2013-08-03 15:32:00,
2013-08-03 08:43:00,65.0,42.0,29.99,NNW,328,2.0,5.0,43,0.00,,,0.00,,2013-08-03 15:43:00,
2013-08-03 08:53:00,65.0,42.0,29.99,NNW,328,2.0,5.0,43,0.00,,,0.00,,2013-08-03 15:53:00,
2013-08-03 09:53:00,68.0,40.0,29.96,WSW,257,3.0,7.0,36,0.00,,,0.00,,2013-08-03 16:53:00,
2013-08-03 10:02:00,68.0,40.0,29.96,WSW,257,3.0,7.0,36,0.00,,,0.00,,2013-08-03 17:02:00,
2013-08-03 10:12:00,68.0,40.0,29.96,WSW,257,3.0,7.0,36,0.00,,,0.00,,2013-08-03 17:12:00,
2013-08-03 10:32:00,69.0,40.0,29.96,NW,323,4.0,8.0,35,0.00,,,0.00,,2013-08-03 17:32:00,
2013-08-03 10:43:00,70.0,41.0,29.96,WNW,292,5.0,8.0,35,0.00,,,0.00,,2013-08-03 17:43:00,
2013-08-03 10:52:00,70.0,40.0,29.96,NNW,331,4.0,8.0,34,0.00,,,0.00,,2013-08-03 17:52:00,
2013-08-03 11:02:00,70.0,40.0,29.96,NNW,331,4.0,8.0,34,0.00,,,0.00,,2013-08-03 18:02:00,
2013-08-03 11:12:00,71.0,40.0,29.96,NW,323,5.0,8.0,33,0.00,,,0.00,,2013-08-03 18:12:00,
2013-08-03 11:21:00,71.0,40.0,29.96,SSW,212,6.0,8.0,33,0.00,,,0.00,,2013-08-03 18:21:00,
2013-08-03 11:32:00,71.0,40.0,29.96,SSW,212,6.0,8.0,33,0.00,,,0.00,,2013-08-03 18:32:00,
2013-08-03 11:42:00,73.0,41.0,29.96,WNW,302,5.0,8.0,31,0.00,,,0.00,,2013-08-03 18:42:00,
2013-08-03 11:53:00,75.0,41.0,29.96,WNW,296,4.0,8.0,30,0.00,,,0.00,,2013-08-03 18:53:00,
2013-08-03 12:02:00,74.0,40.0,29.96,WNW,303,5.0,8.0,29,0.00,,,0.00,,2013-08-03 19:02:00,
2013-08-03 12:11:00,76.0,41.0,29.96,WSW,246,2.0,6.0,28,0.00,,,0.00,,2013-08-03 19:11:00,
2013-08-03 12:22:00,75.0,38.0,29.96,ESE,109,3.0,7.0,26,0.00,,,0.00,,2013-08-03 19:22:00,
2013-08-03 12:52:00,76.0,37.0,29.96,WNW,301,6.0,7.0,24,0.00,,,0.00,,2013-08-03 19:52:00,
2013-08-03 13:02:00,79.0,38.0,29.96,NW,307,5.0,9.0,23,0.00,,,0.00,,2013-08-03 20:02:00,
2013-08-03 13:12:00,79.0,38.0,29.96,NW,307,5.0,9.0,23,0.00,,,0.00,,2013-08-03 20:12:00,
2013-08-03 13:21:00,80.0,38.0,29.96,West,272,4.0,8.0,22,0.00,,,0.00,,2013-08-03 20:21:00,
2013-08-03 13:32:00,81.0,39.0,29.93,SW,231,3.0,8.0,22,0.00,,,0.00,,2013-08-03 20:32:00,
2013-08-03 13:42:00,80.0,37.0,29.93,NW,312,6.0,9.0,21,0.00,,,0.00,,2013-08-03 20:42:00,
2013-08-03 13:52:00,79.0,36.0,29.96,West,273,6.0,9.0,21,0.00,,,0.00,,2013-08-03 20:52:00,
2013-08-03 14:01:00,79.0,34.0,29.93,NE,48,5.0,12.0,20,0.00,,,0.00,,2013-08-03 21:01:00,
2013-08-03 14:12:00,81.0,36.0,29.93,NW,318,3.0,10.0,20,0.00,,,0.00,,2013-08-03 21:12:00,
2013-08-03 14:32:00,81.0,36.0,29.93,NW,307,7.0,10.0,20,0.00,,,0.00,,2013-08-03 21:32:00,
2013-08-03 14:52:00,81.0,36.0,29.93,WNW,288,6.0,10.0,20,0.00,,,0.00,,2013-08-03 21:52:00,
2013-08-03 15:02:00,82.0,36.0,29.93,NW,313,6.0,10.0,19,0.00,,,0.00,,2013-08-03 22:02:00,
2013-08-03 15:11:00,82.0,36.0,29.93,NW,313,6.0,10.0,19,0.00,,,0.00,,2013-08-03 22:11:00,
2013-08-03 15:32:00,82.0,36.0,29.93,NW,306,4.0,9.0,19,0.00,,,0.00,,2013-08-03 22:32:00,
2013-08-03 15:43:00,83.0,34.0,29.93,WNW,303,3.0,9.0,17,0.00,,,0.00,,2013-08-03 22:43:00,
2013-08-03 15:52:00,82.0,33.0,29.93,WNW,296,5.0,10.0,17,0.00,,,0.00,,2013-08-03 22:52:00,
2013-08-03 16:01:00,82.0,33.0,29.90,West,271,3.0,10.0,17,0.00,,,0.00,,2013-08-03 23:01:00,
2013-08-03 16:12:00,82.0,33.0,29.90,West,271,3.0,10.0,17,0.00,,,0.00,,2013-08-03 23:12:00,
2013-08-03 16:32:00,82.0,33.0,29.90,NW,305,4.0,8.0,17,0.00,,,0.00,,2013-08-03 23:32:00,
2013-08-03 16:52:00,82.0,33.0,29.90,NW,313,6.0,9.0,17,0.00,,,0.00,,2013-08-03 23:52:00,
2013-08-03 17:02:00,82.0,33.0,29.90,NW,314,7.0,12.0,17,0.00,,,0.00,,2013-08-04 00:02:00,
2013-08-03 17:12:00,82.0,33.0,29.90,NW,314,7.0,12.0,17,0.00,,,0.00,,2013-08-04 00:12:00,
2013-08-03 17:32:00,82.0,33.0,29.90,North,5,4.0,6.0,17,0.00,,,0.00,,2013-08-04 00:32:00,
2013-08-03 17:42:00,82.0,33.0,29.90,North,5,4.0,6.0,17,0.00,,,0.00,,2013-08-04 00:42:00,
2013-08-03 17:52:00,82.0,33.0,29.90,North,5,4.0,6.0,17,0.00,,,0.00,,2013-08-04 00:52:00,
2013-08-03 18:02:00,82.0,33.0,29.90,NNW,337,6.0,8.0,17,0.00,,,0.00,,2013-08-04 01:02:00,
2013-08-03 18:21:00,81.0,31.0,29.90,NNW,327,4.0,8.0,16,0.00,,,0.00,,2013-08-04 01:21:00,
2013-08-03 18:32:00,81.0,32.0,29.90,WNW,296,5.0,10.0,17,0.00,,,0.00,,2013-08-04 01:32:00,
2013-08-03 18:42:00,81.0,27.0,29.90,NW,319,7.0,13.0,14,0.00,,,0.00,,2013-08-04 01:42:00,
2013-08-03 18:52:00,81.0,27.0,29.90,NW,319,7.0,13.0,14,0.00,,,0.00,,2013-08-04 01:52:00,
2013-08-03 19:02:00,80.0,30.0,29.87,NW,319,3.0,8.0,16,0.00,,,0.00,,2013-08-04 02:02:00,
2013-08-03 19:11:00,80.0,30.0,29.87,NW,319,3.0,8.0,16,0.00,,,0.00,,2013-08-04 02:11:00,
2013-08-03 19:22:00,80.0,30.0,29.87,NW,319,3.0,8.0,16,0.00,,,0.00,,2013-08-04 02:22:00,
2013-08-03 19:32:00,79.0,30.0,29.87,NNW,346,5.0,8.0,17,0.00,,,0.00,,2013-08-04 02:32:00,
2013-08-03 19:42:00,79.0,30.0,29.87,NNW,346,5.0,8.0,17,0.00,,,0.00,,2013-08-04 02:42:00,
2013-08-03 19:52:00,77.0,33.0,29.87,North,6,3.0,7.0,20,0.00,,,0.00,,2013-08-04 02:52:00,
2013-08-03 20:01:00,76.0,32.0,29.87,North,5,5.0,7.0,20,0.00,,,0.00,,2013-08-04 03:01:00,
2013-08-03 20:11:00,75.0,32.0,29.87,North,0,4.0,7.0,21,0.00,,,0.00,,2013-08-04 03:11:00,
2013-08-03 20:21:00,75.0,32.0,29.87,North,0,4.0,7.0,21,0.00,,,0.00,,2013-08-04 03:21:00,
2013-08-03 20:32:00,74.0,32.0,29.87,North,352,7.0,9.0,21,0.00,,,0.00,,2013-08-04 03:32:00,
2013-08-03 20:42:00,74.0,32.0,29.87,North,352,7.0,9.0,21,0.00,,,0.00,,2013-08-04 03:42:00,
2013-08-03 20:52:00,74.0,32.0,29.87,North,352,7.0,9.0,21,0.00,,,0.00,,2013-08-04 03:52:00,
2013-08-03 21:02:00,71.0,33.0,29.90,NNE,22,3.0,6.0,25,0.00,,,0.00,,2013-08-04 04:02:00,
2013-08-03 21:11:00,71.0,33.0,29.90,NNE,22,3.0,6.0,25,0.00,,,0.00,,2013-08-04 04:11:00,
2013-08-03 21:22:00,71.0,33.0,29.90,NNE,22,3.0,6.0,25,0.00,,,0.00,,2013-08-04 04:22:00,
2013-08-03 21:32:00,69.0,33.0,29.90,NE,42,3.0,3.0,26,0.00,,,0.00,,2013-08-04 04:32:00,
2013-08-03 21:42:00,69.0,33.0,29.90,NE,42,3.0,3.0,26,0.00,,,0.00,,2013-08-04 04:42:00,
2013-08-03 21:52:00,69.0,33.0,29.90,NE,42,3.0,3.0,26,0.00,,,0.00,,2013-08-04 04:52:00,
2013-08-03 22:02:00,69.0,35.0,29.93,ESE,112,1.0,6.0,28,0.00,,,0.00,,2013-08-04 05:02:00,
2013-08-03 22:11:00,69.0,35.0,29.93,ESE,112,1.0,6.0,28,0.00,,,0.00,,2013-08-04 05:11:00,
2013-08-03 22:22:00,68.0,35.0,29.93,ESE,112,1.0,5.0,29,0.00,,,0.00,,2013-08-04 05:22:00,
2013-08-03 22:32:00,68.0,35.0,29.93,ESE,112,1.0,5.0,29,0.00,,,0.00,,2013-08-04 05:32:00,
2013-08-03 22:42:00,67.0,34.0,29.93,East,93,2.0,3.0,29,0.00,,,0.00,,2013-08-04 05:42:00,
2013-08-03 22:52:00,66.0,34.0,29.93,ESE,112,2.0,3.0,31,0.00,,,0.00,,2013-08-04 05:52:00,
2013-08-03 23:01:00,66.0,34.0,29.93,ESE,112,2.0,3.0,31,0.00,,,0.00,,2013-08-04 06:01:00,
2013-08-03 23:12:00,65.0,34.0,29.93,ESE,118,3.0,5.0,32,0.00,,,0.00,,2013-08-04 06:12:00,
2013-08-03 23:22:00,65.0,35.0,29.93,SE,136,3.0,5.0,33,0.00,,,0.00,,2013-08-04 06:22:00,